sensor_id;sensor_type;location;lat;lon;timestamp;pressure;altitude;pressure_sealevel;temperature;humidity
61676;BME280;47574;52.090;5.244;2023-08-21T00:00:34;102298.0;;;25.26;50.71
61676;BME280;47574;52.090;5.244;2023-08-21T00:02:11;102298.0;;;25.34;50.45
61676;BME280;47574;52.090;5.244;2023-08-21T00:03:47;102302.0;;;25.04;51.19
61676;BME280;47574;52.090;5.244;2023-08-21T00:07:02;102307.0;;;24.97;51.42
61676;BME280;47574;52.090;5.244;2023-08-21T00:08:38;102309.0;;;25.0;51.47
61676;BME280;47574;52.090;5.244;2023-08-21T00:10:15;102300.0;;;25.19;50.96
61676;BME280;47574;52.090;5.244;2023-08-21T00:11:53;102308.0;;;25.25;50.7
61676;BME280;47574;52.090;5.244;2023-08-21T00:15:08;102305.0;;;25.16;50.81
61676;BME280;47574;52.090;5.244;2023-08-21T00:16:45;102307.0;;;24.93;51.25
61676;BME280;47574;52.090;5.244;2023-08-21T00:18:22;102310.0;;;24.84;51.51
61676;BME280;47574;52.090;5.244;2023-08-21T00:21:37;102308.0;;;25.05;51.06
61676;BME280;47574;52.090;5.244;2023-08-21T00:23:13;102313.0;;;25.07;51.1
61676;BME280;47574;52.090;5.244;2023-08-21T00:24:51;102311.0;;;24.8;51.66
61676;BME280;47574;52.090;5.244;2023-08-21T00:26:28;102313.0;;;24.99;51.25
61676;BME280;47574;52.090;5.244;2023-08-21T00:29:42;102315.0;;;24.99;51.21
61676;BME280;47574;52.090;5.244;2023-08-21T00:31:19;102316.0;;;24.86;51.63
61676;BME280;47574;52.090;5.244;2023-08-21T00:32:56;102312.0;;;24.9;51.54
61676;BME280;47574;52.090;5.244;2023-08-21T00:36:10;102315.0;;;25.12;50.97
61676;BME280;47574;52.090;5.244;2023-08-21T00:37:46;102305.0;;;25.36;50.26
61676;BME280;47574;52.090;5.244;2023-08-21T00:39:22;102305.0;;;25.17;50.65
61676;BME280;47574;52.090;5.244;2023-08-21T00:42:36;102305.0;;;25.28;50.45
61676;BME280;47574;52.090;5.244;2023-08-21T00:44:13;102303.0;;;25.24;50.58
61676;BME280;47574;52.090;5.244;2023-08-21T00:45:50;102297.0;;;25.25;50.58
61676;BME280;47574;52.090;5.244;2023-08-21T00:47:27;102302.0;;;25.37;50.25
61676;BME280;47574;52.090;5.244;2023-08-21T00:50:40;102306.0;;;24.97;51.3
61676;BME280;47574;52.090;5.244;2023-08-21T00:52:19;102306.0;;;24.95;51.43
61676;BME280;47574;52.090;5.244;2023-08-21T00:53:56;102300.0;;;24.77;51.89
61676;BME280;47574;52.090;5.244;2023-08-21T00:57:10;102300.0;;;25.02;51.31
61676;BME280;47574;52.090;5.244;2023-08-21T00:58:48;102300.0;;;24.93;51.52
61676;BME280;47574;52.090;5.244;2023-08-21T01:00:26;102295.0;;;25.16;51.11
61676;BME280;47574;52.090;5.244;2023-08-21T01:02:04;102293.0;;;25.23;50.87
61676;BME280;47574;52.090;5.244;2023-08-21T01:05:18;102288.0;;;25.19;50.94
61676;BME280;47574;52.090;5.244;2023-08-21T01:06:56;102290.0;;;25.05;51.36
61676;BME280;47574;52.090;5.244;2023-08-21T01:08:40;102291.0;;;25.06;51.26
61676;BME280;47574;52.090;5.244;2023-08-21T01:10:33;102287.0;;;25.14;51.15
61676;BME280;47574;52.090;5.244;2023-08-21T01:14:13;102285.0;;;25.21;50.79
61676;BME280;47574;52.090;5.244;2023-08-21T01:15:59;102287.0;;;25.29;50.55
61676;BME280;47574;52.090;5.244;2023-08-21T01:17:38;102289.0;;;25.14;50.77
61676;BME280;47574;52.090;5.244;2023-08-21T01:19:26;102299.0;;;24.88;51.51
61676;BME280;47574;52.090;5.244;2023-08-21T01:21:06;102295.0;;;24.93;51.56
61676;BME280;47574;52.090;5.244;2023-08-21T01:24:20;102296.0;;;25.05;51.22
61676;BME280;47574;52.090;5.244;2023-08-21T01:25:57;102289.0;;;25.22;50.59
61676;BME280;47574;52.090;5.244;2023-08-21T01:27:34;102295.0;;;25.02;51.2
61676;BME280;47574;52.090;5.244;2023-08-21T01:29:12;102295.0;;;24.84;51.65
61676;BME280;47574;52.090;5.244;2023-08-21T01:32:35;102291.0;;;25.07;51.11
61676;BME280;47574;52.090;5.244;2023-08-21T01:34:28;102302.0;;;25.05;51.13
61676;BME280;47574;52.090;5.244;2023-08-21T01:36:05;102309.0;;;24.95;51.39
61676;BME280;47574;52.090;5.244;2023-08-21T01:37:43;102302.0;;;24.99;51.36
61676;BME280;47574;52.090;5.244;2023-08-21T01:40:59;102299.0;;;25.03;51.25
61676;BME280;47574;52.090;5.244;2023-08-21T01:42:35;102296.0;;;25.22;50.84
61676;BME280;47574;52.090;5.244;2023-08-21T01:44:12;102303.0;;;25.0;51.32
61676;BME280;47574;52.090;5.244;2023-08-21T01:47:27;102301.0;;;24.89;51.57
61676;BME280;47574;52.090;5.244;2023-08-21T01:49:04;102307.0;;;24.93;51.47
61676;BME280;47574;52.090;5.244;2023-08-21T01:50:40;102307.0;;;24.65;52.27
61676;BME280;47574;52.090;5.244;2023-08-21T01:52:17;102305.0;;;24.68;52.27
61676;BME280;47574;52.090;5.244;2023-08-21T01:55:31;102302.0;;;24.62;52.38
61676;BME280;47574;52.090;5.244;2023-08-21T01:57:08;102300.0;;;24.8;52.02
61676;BME280;47574;52.090;5.244;2023-08-21T01:58:45;102300.0;;;24.9;51.8
61676;BME280;47574;52.090;5.244;2023-08-21T02:01:58;102293.0;;;25.14;51.17
61676;BME280;47574;52.090;5.244;2023-08-21T02:03:35;102299.0;;;24.76;51.99
61676;BME280;47574;52.090;5.244;2023-08-21T02:05:11;102302.0;;;24.72;52.18
61676;BME280;47574;52.090;5.244;2023-08-21T02:06:49;102305.0;;;24.82;51.94
61676;BME280;47574;52.090;5.244;2023-08-21T02:10:09;102305.0;;;24.97;51.59
61676;BME280;47574;52.090;5.244;2023-08-21T02:11:46;102305.0;;;24.65;52.45
61676;BME280;47574;52.090;5.244;2023-08-21T02:13:23;102305.0;;;24.78;52.18
61676;BME280;47574;52.090;5.244;2023-08-21T02:16:36;102303.0;;;24.52;52.84
61676;BME280;47574;52.090;5.244;2023-08-21T02:18:13;102305.0;;;24.48;53.02
61676;BME280;47574;52.090;5.244;2023-08-21T02:19:50;102299.0;;;24.48;53.02
61676;BME280;47574;52.090;5.244;2023-08-21T02:23:04;102300.0;;;24.38;53.21
61676;BME280;47574;52.090;5.244;2023-08-21T02:24:41;102300.0;;;24.72;52.36
61676;BME280;47574;52.090;5.244;2023-08-21T02:26:17;102303.0;;;24.84;52.03
61676;BME280;47574;52.090;5.244;2023-08-21T02:27:54;102306.0;;;24.8;52.1
61676;BME280;47574;52.090;5.244;2023-08-21T02:31:09;102309.0;;;24.39;53.07
61676;BME280;47574;52.090;5.244;2023-08-21T02:32:45;102314.0;;;24.3;53.46
61676;BME280;47574;52.090;5.244;2023-08-21T02:34:22;102315.0;;;24.36;53.41
61676;BME280;47574;52.090;5.244;2023-08-21T02:37:37;102310.0;;;24.6;52.87
61676;BME280;47574;52.090;5.244;2023-08-21T02:39:13;102308.0;;;24.53;53.05
61676;BME280;47574;52.090;5.244;2023-08-21T02:40:50;102306.0;;;24.74;52.57
61676;BME280;47574;52.090;5.244;2023-08-21T02:42:27;102307.0;;;24.6;52.86
61676;BME280;47574;52.090;5.244;2023-08-21T02:45:41;102306.0;;;24.63;52.78
61676;BME280;47574;52.090;5.244;2023-08-21T02:47:18;102309.0;;;24.32;53.61
61676;BME280;47574;52.090;5.244;2023-08-21T02:48:55;102305.0;;;24.44;53.14
61676;BME280;47574;52.090;5.244;2023-08-21T02:52:09;102310.0;;;24.22;53.65
61676;BME280;47574;52.090;5.244;2023-08-21T02:53:45;102307.0;;;24.4;53.17
61676;BME280;47574;52.090;5.244;2023-08-21T02:55:21;102307.0;;;24.37;53.23
61676;BME280;47574;52.090;5.244;2023-08-21T02:58:35;102307.0;;;24.37;53.35
61676;BME280;47574;52.090;5.244;2023-08-21T03:00:13;102305.0;;;24.5;52.87
61676;BME280;47574;52.090;5.244;2023-08-21T03:01:50;102302.0;;;24.34;53.31
61676;BME280;47574;52.090;5.244;2023-08-21T03:03:27;102306.0;;;24.28;53.56
61676;BME280;47574;52.090;5.244;2023-08-21T03:06:41;102308.0;;;24.53;52.94
61676;BME280;47574;52.090;5.244;2023-08-21T03:08:17;102305.0;;;24.38;53.29
61676;BME280;47574;52.090;5.244;2023-08-21T03:09:54;102309.0;;;24.67;52.61
61676;BME280;47574;52.090;5.244;2023-08-21T03:13:08;102310.0;;;24.32;53.46
61676;BME280;47574;52.090;5.244;2023-08-21T03:14:45;102309.0;;;24.33;53.56
61676;BME280;47574;52.090;5.244;2023-08-21T03:16:22;102310.0;;;24.31;53.45
61676;BME280;47574;52.090;5.244;2023-08-21T03:17:59;102307.0;;;24.62;52.7
61676;BME280;47574;52.090;5.244;2023-08-21T03:21:13;102309.0;;;24.66;52.47
61676;BME280;47574;52.090;5.244;2023-08-21T03:22:50;102309.0;;;24.66;52.42
61676;BME280;47574;52.090;5.244;2023-08-21T03:24:28;102306.0;;;24.23;53.6
61676;BME280;47574;52.090;5.244;2023-08-21T03:27:42;102308.0;;;24.22;53.68
61676;BME280;47574;52.090;5.244;2023-08-21T03:29:18;102306.0;;;24.27;53.7
61676;BME280;47574;52.090;5.244;2023-08-21T03:30:55;102308.0;;;24.59;52.84
61676;BME280;47574;52.090;5.244;2023-08-21T03:34:09;102306.0;;;24.35;53.39
61676;BME280;47574;52.090;5.244;2023-08-21T03:35:45;102307.0;;;24.33;53.44
61676;BME280;47574;52.090;5.244;2023-08-21T03:37:23;102308.0;;;24.51;52.99
61676;BME280;47574;52.090;5.244;2023-08-21T03:39:00;102306.0;;;24.51;52.92
61676;BME280;47574;52.090;5.244;2023-08-21T03:42:16;102306.0;;;24.26;53.53
61676;BME280;47574;52.090;5.244;2023-08-21T03:43:53;102303.0;;;24.42;53.2
61676;BME280;47574;52.090;5.244;2023-08-21T03:45:30;102297.0;;;24.5;52.83
61676;BME280;47574;52.090;5.244;2023-08-21T03:48:44;102293.0;;;24.57;52.65
61676;BME280;47574;52.090;5.244;2023-08-21T03:50:21;102298.0;;;24.52;52.95
61676;BME280;47574;52.090;5.244;2023-08-21T03:51:58;102297.0;;;24.41;53.04
61676;BME280;47574;52.090;5.244;2023-08-21T03:53:35;102297.0;;;24.61;52.56
61676;BME280;47574;52.090;5.244;2023-08-21T03:56:50;102297.0;;;24.76;52.16
61676;BME280;47574;52.090;5.244;2023-08-21T03:58:27;102296.0;;;24.63;52.46
61676;BME280;47574;52.090;5.244;2023-08-21T04:00:05;102299.0;;;24.67;52.52
61676;BME280;47574;52.090;5.244;2023-08-21T04:03:20;102299.0;;;24.74;52.23
61676;BME280;47574;52.090;5.244;2023-08-21T04:04:57;102297.0;;;24.82;52.16
61676;BME280;47574;52.090;5.244;2023-08-21T04:06:35;102299.0;;;24.54;52.75
61676;BME280;47574;52.090;5.244;2023-08-21T04:08:12;102300.0;;;24.67;52.54
61676;BME280;47574;52.090;5.244;2023-08-21T04:11:27;102300.0;;;24.35;53.31
61676;BME280;47574;52.090;5.244;2023-08-21T04:13:05;102305.0;;;24.08;54.01
61676;BME280;47574;52.090;5.244;2023-08-21T04:14:41;102303.0;;;24.07;54.16
61676;BME280;47574;52.090;5.244;2023-08-21T04:17:54;102308.0;;;24.12;54.01
61676;BME280;47574;52.090;5.244;2023-08-21T04:19:31;102309.0;;;24.38;53.49
61676;BME280;47574;52.090;5.244;2023-08-21T04:21:09;102309.0;;;24.26;53.67
61676;BME280;47574;52.090;5.244;2023-08-21T04:24:23;102314.0;;;24.25;53.71
61676;BME280;47574;52.090;5.244;2023-08-21T04:26:00;102315.0;;;24.28;53.71
61676;BME280;47574;52.090;5.244;2023-08-21T04:27:37;102316.0;;;24.31;53.66
61676;BME280;47574;52.090;5.244;2023-08-21T04:29:15;102311.0;;;24.2;53.84
61676;BME280;47574;52.090;5.244;2023-08-21T04:32:29;102314.0;;;24.29;53.61
61676;BME280;47574;52.090;5.244;2023-08-21T04:34:05;102313.0;;;24.18;53.82
61676;BME280;47574;52.090;5.244;2023-08-21T04:35:43;102315.0;;;24.43;53.09
61676;BME280;47574;52.090;5.244;2023-08-21T04:38:57;102317.0;;;24.31;53.47
61676;BME280;47574;52.090;5.244;2023-08-21T04:40:34;102319.0;;;24.2;53.79
61676;BME280;47574;52.090;5.244;2023-08-21T04:42:11;102316.0;;;24.56;52.9
61676;BME280;47574;52.090;5.244;2023-08-21T04:43:48;102318.0;;;24.51;52.91
61676;BME280;47574;52.090;5.244;2023-08-21T04:47:19;102316.0;;;24.24;53.62
61676;BME280;47574;52.090;5.244;2023-08-21T04:48:57;102315.0;;;24.13;53.99
61676;BME280;47574;52.090;5.244;2023-08-21T04:50:34;102313.0;;;24.04;54.17
61676;BME280;47574;52.090;5.244;2023-08-21T04:52:11;102312.0;;;24.01;54.3
61676;BME280;47574;52.090;5.244;2023-08-21T04:55:25;102310.0;;;24.06;54.13
61676;BME280;47574;52.090;5.244;2023-08-21T04:57:02;102312.0;;;24.06;54.01
61676;BME280;47574;52.090;5.244;2023-08-21T04:58:38;102318.0;;;24.29;53.5
61676;BME280;47574;52.090;5.244;2023-08-21T05:01:53;102319.0;;;24.24;53.47
61676;BME280;47574;52.090;5.244;2023-08-21T05:03:30;102322.0;;;24.28;53.43
61676;BME280;47574;52.090;5.244;2023-08-21T05:05:07;102328.0;;;24.33;53.34
61676;BME280;47574;52.090;5.244;2023-08-21T05:08:21;102330.0;;;24.22;53.67
61676;BME280;47574;52.090;5.244;2023-08-21T05:10:01;102323.0;;;24.1;53.9
61676;BME280;47574;52.090;5.244;2023-08-21T05:11:39;102323.0;;;24.12;53.85
61676;BME280;47574;52.090;5.244;2023-08-21T05:13:17;102327.0;;;24.2;53.63
61676;BME280;47574;52.090;5.244;2023-08-21T05:16:31;102325.0;;;24.44;53.0
61676;BME280;47574;52.090;5.244;2023-08-21T05:18:08;102326.0;;;24.17;53.66
61676;BME280;47574;52.090;5.244;2023-08-21T05:19:44;102321.0;;;23.96;54.29
61676;BME280;47574;52.090;5.244;2023-08-21T05:22:59;102323.0;;;24.2;53.72
61676;BME280;47574;52.090;5.244;2023-08-21T05:24:37;102324.0;;;24.08;54.16
61676;BME280;47574;52.090;5.244;2023-08-21T05:26:14;102330.0;;;24.08;54.17
61676;BME280;47574;52.090;5.244;2023-08-21T05:27:51;102331.0;;;24.29;53.41
61676;BME280;47574;52.090;5.244;2023-08-21T05:31:05;102330.0;;;24.04;53.7
61676;BME280;47574;52.090;5.244;2023-08-21T05:32:42;102331.0;;;24.24;53.31
61676;BME280;47574;52.090;5.244;2023-08-21T05:34:18;102331.0;;;24.34;52.95
61676;BME280;47574;52.090;5.244;2023-08-21T05:37:33;102331.0;;;24.32;53.03
61676;BME280;47574;52.090;5.244;2023-08-21T05:39:10;102337.0;;;24.58;52.45
61676;BME280;47574;52.090;5.244;2023-08-21T05:40:48;102335.0;;;24.62;52.31
61676;BME280;47574;52.090;5.244;2023-08-21T05:42:25;102334.0;;;24.11;53.5
61676;BME280;47574;52.090;5.244;2023-08-21T05:45:39;102334.0;;;24.21;53.45
61676;BME280;47574;52.090;5.244;2023-08-21T05:47:17;102335.0;;;24.54;52.71
61676;BME280;47574;52.090;5.244;2023-08-21T05:48:53;102339.0;;;24.3;53.35
61676;BME280;47574;52.090;5.244;2023-08-21T05:52:08;102338.0;;;24.32;53.36
61676;BME280;47574;52.090;5.244;2023-08-21T05:53:45;102337.0;;;24.49;53.07
61676;BME280;47574;52.090;5.244;2023-08-21T05:55:22;102338.0;;;24.64;52.69
61676;BME280;47574;52.090;5.244;2023-08-21T05:57:02;102339.0;;;24.51;53.14
61676;BME280;47574;52.090;5.244;2023-08-21T06:00:16;102344.0;;;24.5;53.46
61676;BME280;47574;52.090;5.244;2023-08-21T06:01:54;102341.0;;;24.52;53.34
61676;BME280;47574;52.090;5.244;2023-08-21T06:03:31;102343.0;;;24.63;53.13
61676;BME280;47574;52.090;5.244;2023-08-21T06:06:46;102341.0;;;24.86;52.53
61676;BME280;47574;52.090;5.244;2023-08-21T06:08:22;102341.0;;;25.01;52.24
61676;BME280;47574;52.090;5.244;2023-08-21T06:10:00;102340.0;;;25.05;52.2
61676;BME280;47574;52.090;5.244;2023-08-21T06:11:37;102339.0;;;25.14;52.13
61676;BME280;47574;52.090;5.244;2023-08-21T06:14:52;102335.0;;;25.16;52.25
61676;BME280;47574;52.090;5.244;2023-08-21T06:16:29;102336.0;;;25.16;52.22
61676;BME280;47574;52.090;5.244;2023-08-21T06:18:06;102339.0;;;25.25;52.02
61676;BME280;47574;52.090;5.244;2023-08-21T06:21:21;102337.0;;;25.19;52.16
61676;BME280;47574;52.090;5.244;2023-08-21T06:22:58;102335.0;;;25.35;51.78
61676;BME280;47574;52.090;5.244;2023-08-21T06:24:35;102343.0;;;25.06;52.61
61676;BME280;47574;52.090;5.244;2023-08-21T06:27:49;102342.0;;;25.25;52.38
61676;BME280;47574;52.090;5.244;2023-08-21T06:29:26;102345.0;;;25.13;52.78
61676;BME280;47574;52.090;5.244;2023-08-21T06:31:02;102348.0;;;25.2;52.86
61676;BME280;47574;52.090;5.244;2023-08-21T06:32:40;102350.0;;;25.15;53.05
61676;BME280;47574;52.090;5.244;2023-08-21T06:35:54;102350.0;;;25.08;53.13
61676;BME280;47574;52.090;5.244;2023-08-21T06:37:31;102351.0;;;25.05;53.2
61676;BME280;47574;52.090;5.244;2023-08-21T06:39:08;102355.0;;;25.11;53.16
61676;BME280;47574;52.090;5.244;2023-08-21T06:42:22;102355.0;;;25.3;52.34
61676;BME280;47574;52.090;5.244;2023-08-21T06:43:59;102355.0;;;25.38;51.97
61676;BME280;47574;52.090;5.244;2023-08-21T06:45:36;102345.0;;;25.44;51.43
61676;BME280;47574;52.090;5.244;2023-08-21T06:47:14;102342.0;;;25.42;51.33
61676;BME280;47574;52.090;5.244;2023-08-21T06:50:27;102345.0;;;25.44;50.94
61676;BME280;47574;52.090;5.244;2023-08-21T06:52:05;102351.0;;;25.62;50.45
61676;BME280;47574;52.090;5.244;2023-08-21T06:53:42;102352.0;;;25.67;49.66
61676;BME280;47574;52.090;5.244;2023-08-21T06:56:56;102348.0;;;25.54;49.6
61676;BME280;47574;52.090;5.244;2023-08-21T06:58:34;102348.0;;;25.68;49.41
61676;BME280;47574;52.090;5.244;2023-08-21T07:00:11;102351.0;;;25.76;49.46
61676;BME280;47574;52.090;5.244;2023-08-21T07:01:48;102351.0;;;25.96;48.83
61676;BME280;47574;52.090;5.244;2023-08-21T07:05:03;102353.0;;;26.07;47.85
61676;BME280;47574;52.090;5.244;2023-08-21T07:06:40;102353.0;;;26.0;47.78
61676;BME280;47574;52.090;5.244;2023-08-21T07:08:17;102348.0;;;26.01;47.38
61676;BME280;47574;52.090;5.244;2023-08-21T07:11:31;102350.0;;;26.02;48.12
61676;BME280;47574;52.090;5.244;2023-08-21T07:13:08;102349.0;;;26.05;47.37
61676;BME280;47574;52.090;5.244;2023-08-21T07:14:45;102351.0;;;26.27;46.94
61676;BME280;47574;52.090;5.244;2023-08-21T07:18:00;102351.0;;;26.35;46.38
61676;BME280;47574;52.090;5.244;2023-08-21T07:19:37;102356.0;;;26.41;46.47
61676;BME280;47574;52.090;5.244;2023-08-21T07:21:14;102360.0;;;26.45;46.43
61676;BME280;47574;52.090;5.244;2023-08-21T07:22:51;102360.0;;;26.55;46.54
61676;BME280;47574;52.090;5.244;2023-08-21T07:26:04;102355.0;;;26.57;45.55
61676;BME280;47574;52.090;5.244;2023-08-21T07:27:42;102357.0;;;26.72;44.66
61676;BME280;47574;52.090;5.244;2023-08-21T07:29:19;102359.0;;;26.78;44.16
61676;BME280;47574;52.090;5.244;2023-08-21T07:32:34;102362.0;;;26.77;44.53
61676;BME280;47574;52.090;5.244;2023-08-21T07:34:11;102361.0;;;26.86;44.88
61676;BME280;47574;52.090;5.244;2023-08-21T07:35:56;102361.0;;;26.84;44.58
61676;BME280;47574;52.090;5.244;2023-08-21T07:37:33;102366.0;;;26.8;45.16
61676;BME280;47574;52.090;5.244;2023-08-21T07:40:47;102368.0;;;26.85;44.43
61676;BME280;47574;52.090;5.244;2023-08-21T07:42:24;102362.0;;;26.96;43.87
61676;BME280;47574;52.090;5.244;2023-08-21T07:44:01;102371.0;;;26.66;46.36
61676;BME280;47574;52.090;5.244;2023-08-21T07:47:15;102365.0;;;26.91;45.88
61676;BME280;47574;52.090;5.244;2023-08-21T07:48:53;102370.0;;;26.79;43.92
61676;BME280;47574;52.090;5.244;2023-08-21T07:52:08;102371.0;;;26.97;43.29
61676;BME280;47574;52.090;5.244;2023-08-21T07:55:21;102367.0;;;26.77;43.54
61676;BME280;47574;52.090;5.244;2023-08-21T07:56:59;102373.0;;;26.84;42.94
61676;BME280;47574;52.090;5.244;2023-08-21T07:58:36;102373.0;;;27.18;42.91
61676;BME280;47574;52.090;5.244;2023-08-21T08:01:50;102374.0;;;26.93;43.72
61676;BME280;47574;52.090;5.244;2023-08-21T08:03:29;102371.0;;;27.06;43.29
61676;BME280;47574;52.090;5.244;2023-08-21T08:05:07;102369.0;;;27.29;42.98
61676;BME280;47574;52.090;5.244;2023-08-21T08:06:44;102367.0;;;27.18;43.31
61676;BME280;47574;52.090;5.244;2023-08-21T08:10:01;102365.0;;;27.15;43.94
61676;BME280;47574;52.090;5.244;2023-08-21T08:11:38;102368.0;;;27.46;43.49
61676;BME280;47574;52.090;5.244;2023-08-21T08:13:16;102370.0;;;27.35;43.52
61676;BME280;47574;52.090;5.244;2023-08-21T08:16:30;102376.0;;;27.2;44.48
61676;BME280;47574;52.090;5.244;2023-08-21T08:18:11;102382.0;;;27.35;44.65
61676;BME280;47574;52.090;5.244;2023-08-21T08:19:48;102382.0;;;27.4;44.51
61676;BME280;47574;52.090;5.244;2023-08-21T08:21:25;102385.0;;;27.4;44.57
61676;BME280;47574;52.090;5.244;2023-08-21T08:24:39;102384.0;;;27.29;44.98
61676;BME280;47574;52.090;5.244;2023-08-21T08:26:16;102377.0;;;27.42;45.16
61676;BME280;47574;52.090;5.244;2023-08-21T08:27:54;102371.0;;;27.31;45.28
61676;BME280;47574;52.090;5.244;2023-08-21T08:31:14;102369.0;;;27.26;45.34
61676;BME280;47574;52.090;5.244;2023-08-21T08:32:51;102371.0;;;27.49;45.08
61676;BME280;47574;52.090;5.244;2023-08-21T08:34:28;102376.0;;;27.55;44.58
61676;BME280;47574;52.090;5.244;2023-08-21T08:36:05;102373.0;;;27.2;45.75
61676;BME280;47574;52.090;5.244;2023-08-21T08:39:21;102376.0;;;27.43;45.27
61676;BME280;47574;52.090;5.244;2023-08-21T08:40:59;102378.0;;;27.18;45.05
61676;BME280;47574;52.090;5.244;2023-08-21T08:42:38;102382.0;;;27.35;44.4
61676;BME280;47574;52.090;5.244;2023-08-21T08:45:54;102385.0;;;27.35;44.92
61676;BME280;47574;52.090;5.244;2023-08-21T08:47:34;102384.0;;;27.73;44.12
61676;BME280;47574;52.090;5.244;2023-08-21T08:49:12;102387.0;;;27.75;44.18
61676;BME280;47574;52.090;5.244;2023-08-21T08:50:50;102381.0;;;27.65;43.47
61676;BME280;47574;52.090;5.244;2023-08-21T08:54:09;102383.0;;;27.8;43.55
61676;BME280;47574;52.090;5.244;2023-08-21T08:55:48;102375.0;;;27.69;42.71
61676;BME280;47574;52.090;5.244;2023-08-21T08:57:25;102375.0;;;27.92;43.07
61676;BME280;47574;52.090;5.244;2023-08-21T09:02:17;102375.0;;;27.81;42.15
61676;BME280;47574;52.090;5.244;2023-08-21T09:03:54;102373.0;;;27.73;41.91
61676;BME280;47574;52.090;5.244;2023-08-21T09:05:33;102370.0;;;27.7;41.8
61676;BME280;47574;52.090;5.244;2023-08-21T09:08:56;102371.0;;;27.85;42.27
61676;BME280;47574;52.090;5.244;2023-08-21T09:10:35;102370.0;;;27.95;41.77
61676;BME280;47574;52.090;5.244;2023-08-21T09:12:14;102371.0;;;28.0;40.81
61676;BME280;47574;52.090;5.244;2023-08-21T09:13:52;102372.0;;;27.87;41.82
61676;BME280;47574;52.090;5.244;2023-08-21T09:17:08;102373.0;;;27.93;41.57
61676;BME280;47574;52.090;5.244;2023-08-21T09:18:47;102375.0;;;28.17;41.64
61676;BME280;47574;52.090;5.244;2023-08-21T09:20:24;102372.0;;;28.23;41.33
61676;BME280;47574;52.090;5.244;2023-08-21T09:22:08;102370.0;;;27.96;41.93
61676;BME280;47574;52.090;5.244;2023-08-21T09:25:26;102372.0;;;28.0;41.95
61676;BME280;47574;52.090;5.244;2023-08-21T09:27:04;102375.0;;;27.84;42.02
61676;BME280;47574;52.090;5.244;2023-08-21T09:28:50;102367.0;;;28.28;41.14
61676;BME280;47574;52.090;5.244;2023-08-21T09:30:28;102371.0;;;28.43;41.12
61676;BME280;47574;52.090;5.244;2023-08-21T09:33:42;102373.0;;;28.12;42.01
61676;BME280;47574;52.090;5.244;2023-08-21T09:35:19;102372.0;;;27.87;41.53
61676;BME280;47574;52.090;5.244;2023-08-21T09:36:57;102369.0;;;28.25;40.92
61676;BME280;47574;52.090;5.244;2023-08-21T09:40:15;102373.0;;;28.47;40.33
61676;BME280;47574;52.090;5.244;2023-08-21T09:41:56;102364.0;;;28.23;40.83
61676;BME280;47574;52.090;5.244;2023-08-21T09:43:41;102364.0;;;28.32;41.05
61676;BME280;47574;52.090;5.244;2023-08-21T09:45:20;102365.0;;;28.69;40.07
61676;BME280;47574;52.090;5.244;2023-08-21T09:48:35;102363.0;;;28.46;40.44
61676;BME280;47574;52.090;5.244;2023-08-21T09:50:12;102362.0;;;28.79;39.31
61676;BME280;47574;52.090;5.244;2023-08-21T09:51:49;102356.0;;;28.92;39.29
61676;BME280;47574;52.090;5.244;2023-08-21T09:53:29;102353.0;;;29.12;38.12
61676;BME280;47574;52.090;5.244;2023-08-21T09:56:46;102356.0;;;29.17;38.46
61676;BME280;47574;52.090;5.244;2023-08-21T09:58:24;102355.0;;;28.99;38.94
61676;BME280;47574;52.090;5.244;2023-08-21T10:00:01;102353.0;;;28.86;38.56
61676;BME280;47574;52.090;5.244;2023-08-21T10:03:20;102351.0;;;29.2;38.15
61676;BME280;47574;52.090;5.244;2023-08-21T10:04:59;102350.0;;;28.92;38.6
61676;BME280;47574;52.090;5.244;2023-08-21T10:06:36;102350.0;;;29.15;38.03
61676;BME280;47574;52.090;5.244;2023-08-21T10:08:16;102351.0;;;29.28;37.94
61676;BME280;47574;52.090;5.244;2023-08-21T10:11:33;102349.0;;;29.25;38.68
61676;BME280;47574;52.090;5.244;2023-08-21T10:13:11;102349.0;;;29.3;38.78
61676;BME280;47574;52.090;5.244;2023-08-21T10:14:47;102345.0;;;29.2;38.14
61676;BME280;47574;52.090;5.244;2023-08-21T10:16:25;102337.0;;;29.55;37.42
61676;BME280;47574;52.090;5.244;2023-08-21T10:19:55;102334.0;;;29.59;37.46
61676;BME280;47574;52.090;5.244;2023-08-21T10:21:34;102341.0;;;28.86;38.71
61676;BME280;47574;52.090;5.244;2023-08-21T10:23:23;102338.0;;;28.93;39.35
61676;BME280;47574;52.090;5.244;2023-08-21T10:25:01;102336.0;;;29.3;38.96
61676;BME280;47574;52.090;5.244;2023-08-21T10:28:16;102342.0;;;29.12;39.64
61676;BME280;47574;52.090;5.244;2023-08-21T10:29:56;102341.0;;;29.27;39.08
61676;BME280;47574;52.090;5.244;2023-08-21T10:31:34;102337.0;;;29.49;38.53
61676;BME280;47574;52.090;5.244;2023-08-21T10:33:12;102349.0;;;29.22;38.82
61676;BME280;47574;52.090;5.244;2023-08-21T10:37:33;102342.0;;;29.6;37.93
61676;BME280;47574;52.090;5.244;2023-08-21T10:39:13;102348.0;;;29.32;37.89
61676;BME280;47574;52.090;5.244;2023-08-21T10:41:07;102353.0;;;29.3;38.46
61676;BME280;47574;52.090;5.244;2023-08-21T10:42:43;102357.0;;;29.37;38.25
61676;BME280;47574;52.090;5.244;2023-08-21T10:44:34;102352.0;;;29.6;37.71
61676;BME280;47574;52.090;5.244;2023-08-21T10:46:49;102342.0;;;29.55;37.35
61676;BME280;47574;52.090;5.244;2023-08-21T10:48:26;102343.0;;;29.79;36.17
61676;BME280;47574;52.090;5.244;2023-08-21T10:50:05;102340.0;;;29.76;36.99
61676;BME280;47574;52.090;5.244;2023-08-21T10:53:20;102341.0;;;29.92;37.25
61676;BME280;47574;52.090;5.244;2023-08-21T10:55:02;102334.0;;;30.06;36.87
61676;BME280;47574;52.090;5.244;2023-08-21T10:56:39;102332.0;;;30.13;36.6
61676;BME280;47574;52.090;5.244;2023-08-21T10:58:16;102327.0;;;30.35;36.28
61676;BME280;47574;52.090;5.244;2023-08-21T11:01:42;102330.0;;;30.13;35.75
61676;BME280;47574;52.090;5.244;2023-08-21T11:03:25;102325.0;;;30.24;36.14
61676;BME280;47574;52.090;5.244;2023-08-21T11:05:02;102330.0;;;30.2;36.03
61676;BME280;47574;52.090;5.244;2023-08-21T11:06:39;102337.0;;;30.0;36.06
61676;BME280;47574;52.090;5.244;2023-08-21T11:09:55;102333.0;;;30.44;35.03